sensor_id;sensor_type;location;lat;lon;timestamp;P1;durP1;ratioP1;P2;durP2;ratioP2
1507;SDS011;745;48.586;10.032;2023-10-19T00:01:41;30.05;;;23.20;;
1507;SDS011;745;48.586;10.032;2023-10-19T00:03:41;30.93;;;22.27;;
1507;SDS011;745;48.586;10.032;2023-10-19T00:05:44;24.55;;;21.40;;
1507;SDS011;745;48.586;10.032;2023-10-19T00:07:45;26.13;;;21.83;;
1507;SDS011;745;48.586;10.032;2023-10-19T00:09:46;25.08;;;20.83;;
1507;SDS011;745;48.586;10.032;2023-10-19T00:11:48;24.45;;;20.90;;
1507;SDS011;745;48.586;10.032;2023-10-19T00:13:51;24.38;;;21.13;;
1507;SDS011;745;48.586;10.032;2023-10-19T00:15:55;21.75;;;19.20;;
1507;SDS011;745;48.586;10.032;2023-10-19T00:17:57;25.40;;;20.60;;
1507;SDS011;745;48.586;10.032;2023-10-19T00:20:06;23.98;;;21.05;;
1507;SDS011;745;48.586;10.032;2023-10-19T00:22:27;26.55;;;20.25;;
1507;SDS011;745;48.586;10.032;2023-10-19T00:24:31;23.45;;;19.65;;
1507;SDS011;745;48.586;10.032;2023-10-19T00:26:31;23.83;;;20.40;;
1507;SDS011;745;48.586;10.032;2023-10-19T00:28:32;23.70;;;20.80;;
1507;SDS011;745;48.586;10.032;2023-10-19T00:30:35;25.10;;;22.00;;
1507;SDS011;745;48.586;10.032;2023-10-19T00:32:35;28.30;;;23.87;;
1507;SDS011;745;48.586;10.032;2023-10-19T00:34:38;28.33;;;23.58;;
1507;SDS011;745;48.586;10.032;2023-10-19T00:36:39;26.43;;;23.40;;
1507;SDS011;745;48.586;10.032;2023-10-19T00:38:40;29.57;;;24.13;;
1507;SDS011;745;48.586;10.032;2023-10-19T00:40:51;27.00;;;22.77;;
1507;SDS011;745;48.586;10.032;2023-10-19T00:42:53;28.60;;;23.58;;
1507;SDS011;745;48.586;10.032;2023-10-19T00:44:55;28.95;;;23.90;;
1507;SDS011;745;48.586;10.032;2023-10-19T00:47:02;30.48;;;24.30;;
1507;SDS011;745;48.586;10.032;2023-10-19T00:49:03;29.13;;;23.50;;
1507;SDS011;745;48.586;10.032;2023-10-19T00:51:07;30.00;;;23.35;;
1507;SDS011;745;48.586;10.032;2023-10-19T00:53:20;27.08;;;22.95;;
1507;SDS011;745;48.586;10.032;2023-10-19T00:55:22;27.38;;;23.38;;
1507;SDS011;745;48.586;10.032;2023-10-19T00:57:26;30.80;;;22.65;;
1507;SDS011;745;48.586;10.032;2023-10-19T00:59:34;27.38;;;21.92;;
1507;SDS011;745;48.586;10.032;2023-10-19T01:02:03;27.15;;;21.60;;
1507;SDS011;745;48.586;10.032;2023-10-19T01:04:16;27.92;;;22.90;;
1507;SDS011;745;48.586;10.032;2023-10-19T01:06:24;32.60;;;26.13;;
1507;SDS011;745;48.586;10.032;2023-10-19T01:08:25;28.90;;;23.13;;
1507;SDS011;745;48.586;10.032;2023-10-19T01:10:32;28.88;;;23.52;;
1507;SDS011;745;48.586;10.032;2023-10-19T01:12:33;32.60;;;24.27;;
1507;SDS011;745;48.586;10.032;2023-10-19T01:14:38;33.00;;;24.75;;
1507;SDS011;745;48.586;10.032;2023-10-19T01:16:40;33.13;;;25.00;;
1507;SDS011;745;48.586;10.032;2023-10-19T01:18:40;30.00;;;24.23;;
1507;SDS011;745;48.586;10.032;2023-10-19T01:20:43;29.88;;;24.70;;
1507;SDS011;745;48.586;10.032;2023-10-19T01:22:55;29.73;;;23.55;;
1507;SDS011;745;48.586;10.032;2023-10-19T01:25:09;29.40;;;22.33;;
1507;SDS011;745;48.586;10.032;2023-10-19T01:27:10;30.30;;;23.95;;
1507;SDS011;745;48.586;10.032;2023-10-19T01:29:11;29.40;;;24.03;;
1507;SDS011;745;48.586;10.032;2023-10-19T01:31:18;27.98;;;23.63;;
1507;SDS011;745;48.586;10.032;2023-10-19T01:33:43;29.77;;;24.15;;
1507;SDS011;745;48.586;10.032;2023-10-19T01:35:46;30.63;;;25.20;;
1507;SDS011;745;48.586;10.032;2023-10-19T01:38:06;29.50;;;24.58;;
1507;SDS011;745;48.586;10.032;2023-10-19T01:40:08;32.35;;;24.92;;
1507;SDS011;745;48.586;10.032;2023-10-19T01:42:08;29.53;;;24.17;;
1507;SDS011;745;48.586;10.032;2023-10-19T01:44:09;27.70;;;21.90;;
1507;SDS011;745;48.586;10.032;2023-10-19T01:46:13;29.98;;;24.10;;
1507;SDS011;745;48.586;10.032;2023-10-19T01:48:21;31.73;;;23.98;;
1507;SDS011;745;48.586;10.032;2023-10-19T01:50:28;29.23;;;23.05;;
1507;SDS011;745;48.586;10.032;2023-10-19T01:52:28;28.90;;;23.13;;
1507;SDS011;745;48.586;10.032;2023-10-19T01:54:28;31.07;;;24.70;;
1507;SDS011;745;48.586;10.032;2023-10-19T01:56:29;29.70;;;22.60;;
1507;SDS011;745;48.586;10.032;2023-10-19T01:58:29;27.63;;;22.10;;
1507;SDS011;745;48.586;10.032;2023-10-19T02:00:30;28.50;;;23.27;;
1507;SDS011;745;48.586;10.032;2023-10-19T02:02:30;26.40;;;21.83;;
1507;SDS011;745;48.586;10.032;2023-10-19T02:04:32;27.55;;;23.23;;
1507;SDS011;745;48.586;10.032;2023-10-19T02:06:35;30.75;;;24.02;;
1507;SDS011;745;48.586;10.032;2023-10-19T02:08:36;29.97;;;24.60;;
1507;SDS011;745;48.586;10.032;2023-10-19T02:10:38;30.08;;;24.40;;
1507;SDS011;745;48.586;10.032;2023-10-19T02:12:42;29.33;;;23.45;;
1507;SDS011;745;48.586;10.032;2023-10-19T02:14:42;30.40;;;22.63;;
1507;SDS011;745;48.586;10.032;2023-10-19T02:16:44;25.17;;;20.83;;
1507;SDS011;745;48.586;10.032;2023-10-19T02:18:46;29.00;;;24.90;;
1507;SDS011;745;48.586;10.032;2023-10-19T02:20:47;29.23;;;24.20;;
1507;SDS011;745;48.586;10.032;2023-10-19T02:22:48;29.10;;;23.27;;
1507;SDS011;745;48.586;10.032;2023-10-19T02:24:48;29.40;;;24.13;;
1507;SDS011;745;48.586;10.032;2023-10-19T02:26:49;28.47;;;24.50;;
1507;SDS011;745;48.586;10.032;2023-10-19T02:28:54;29.35;;;24.23;;
1507;SDS011;745;48.586;10.032;2023-10-19T02:30:56;27.67;;;24.20;;
1507;SDS011;745;48.586;10.032;2023-10-19T02:32:56;31.40;;;24.73;;
1507;SDS011;745;48.586;10.032;2023-10-19T02:34:57;29.60;;;23.80;;
1507;SDS011;745;48.586;10.032;2023-10-19T02:36:57;28.60;;;23.53;;
1507;SDS011;745;48.586;10.032;2023-10-19T02:39:01;28.67;;;23.07;;
1507;SDS011;745;48.586;10.032;2023-10-19T02:41:08;32.25;;;25.30;;
1507;SDS011;745;48.586;10.032;2023-10-19T02:43:09;30.05;;;24.63;;
1507;SDS011;745;48.586;10.032;2023-10-19T02:45:11;29.15;;;23.88;;
1507;SDS011;745;48.586;10.032;2023-10-19T02:47:11;32.13;;;23.93;;
1507;SDS011;745;48.586;10.032;2023-10-19T02:49:12;29.67;;;23.90;;
1507;SDS011;745;48.586;10.032;2023-10-19T02:51:20;30.50;;;23.65;;
1507;SDS011;745;48.586;10.032;2023-10-19T02:53:20;28.10;;;24.73;;
1507;SDS011;745;48.586;10.032;2023-10-19T02:55:21;31.00;;;24.80;;
1507;SDS011;745;48.586;10.032;2023-10-19T02:57:24;29.67;;;24.75;;
1507;SDS011;745;48.586;10.032;2023-10-19T02:59:25;31.53;;;24.67;;
1507;SDS011;745;48.586;10.032;2023-10-19T03:01:29;30.08;;;23.83;;
1507;SDS011;745;48.586;10.032;2023-10-19T03:03:31;29.27;;;22.73;;
1507;SDS011;745;48.586;10.032;2023-10-19T03:05:32;31.30;;;25.50;;
1507;SDS011;745;48.586;10.032;2023-10-19T03:07:34;35.70;;;25.42;;
1507;SDS011;745;48.586;10.032;2023-10-19T03:09:34;30.50;;;24.77;;
1507;SDS011;745;48.586;10.032;2023-10-19T03:11:42;30.00;;;24.08;;
1507;SDS011;745;48.586;10.032;2023-10-19T03:13:44;33.33;;;24.25;;
1507;SDS011;745;48.586;10.032;2023-10-19T03:15:44;34.30;;;26.30;;
1507;SDS011;745;48.586;10.032;2023-10-19T03:17:45;31.00;;;24.00;;
1507;SDS011;745;48.586;10.032;2023-10-19T03:19:46;34.20;;;25.70;;
1507;SDS011;745;48.586;10.032;2023-10-19T03:21:46;32.20;;;26.73;;
1507;SDS011;745;48.586;10.032;2023-10-19T03:23:49;30.13;;;24.40;;
1507;SDS011;745;48.586;10.032;2023-10-19T03:25:54;35.87;;;26.30;;
1507;SDS011;745;48.586;10.032;2023-10-19T03:28:15;29.77;;;23.02;;
1507;SDS011;745;48.586;10.032;2023-10-19T03:30:18;31.52;;;25.83;;
1507;SDS011;745;48.586;10.032;2023-10-19T03:32:19;32.47;;;26.30;;
1507;SDS011;745;48.586;10.032;2023-10-19T03:34:26;36.70;;;27.50;;
1507;SDS011;745;48.586;10.032;2023-10-19T03:36:26;38.40;;;27.97;;
1507;SDS011;745;48.586;10.032;2023-10-19T03:38:27;34.80;;;27.90;;
1507;SDS011;745;48.586;10.032;2023-10-19T03:40:34;40.33;;;29.63;;
1507;SDS011;745;48.586;10.032;2023-10-19T03:42:38;35.35;;;27.42;;
1507;SDS011;745;48.586;10.032;2023-10-19T03:44:41;36.20;;;26.98;;
1507;SDS011;745;48.586;10.032;2023-10-19T03:46:53;35.45;;;28.25;;
1507;SDS011;745;48.586;10.032;2023-10-19T03:48:55;35.80;;;27.08;;
1507;SDS011;745;48.586;10.032;2023-10-19T03:50:59;39.30;;;28.70;;
1507;SDS011;745;48.586;10.032;2023-10-19T03:53:02;35.80;;;28.15;;
1507;SDS011;745;48.586;10.032;2023-10-19T03:55:04;36.58;;;25.52;;
1507;SDS011;745;48.586;10.032;2023-10-19T03:57:25;40.00;;;29.05;;
1507;SDS011;745;48.586;10.032;2023-10-19T03:59:29;37.45;;;27.92;;
1507;SDS011;745;48.586;10.032;2023-10-19T04:01:33;37.13;;;28.77;;
1507;SDS011;745;48.586;10.032;2023-10-19T04:03:34;42.00;;;28.70;;
1507;SDS011;745;48.586;10.032;2023-10-19T04:05:36;36.90;;;28.55;;
1507;SDS011;745;48.586;10.032;2023-10-19T04:07:38;40.45;;;28.40;;
1507;SDS011;745;48.586;10.032;2023-10-19T04:09:39;36.47;;;27.20;;
1507;SDS011;745;48.586;10.032;2023-10-19T04:11:57;33.22;;;26.88;;
1507;SDS011;745;48.586;10.032;2023-10-19T04:13:57;34.23;;;27.00;;
1507;SDS011;745;48.586;10.032;2023-10-19T04:15:59;31.88;;;26.75;;
1507;SDS011;745;48.586;10.032;2023-10-19T04:17:59;34.90;;;28.40;;
1507;SDS011;745;48.586;10.032;2023-10-19T04:20:00;36.80;;;28.30;;
1507;SDS011;745;48.586;10.032;2023-10-19T04:22:08;35.55;;;27.80;;
1507;SDS011;745;48.586;10.032;2023-10-19T04:24:11;35.45;;;27.02;;
1507;SDS011;745;48.586;10.032;2023-10-19T04:26:12;37.50;;;28.52;;
1507;SDS011;745;48.586;10.032;2023-10-19T04:28:14;36.10;;;29.30;;
1507;SDS011;745;48.586;10.032;2023-10-19T04:30:15;40.10;;;29.23;;
1507;SDS011;745;48.586;10.032;2023-10-19T04:32:16;37.95;;;29.70;;
1507;SDS011;745;48.586;10.032;2023-10-19T04:34:25;37.17;;;29.38;;
1507;SDS011;745;48.586;10.032;2023-10-19T04:36:25;31.50;;;27.17;;
1507;SDS011;745;48.586;10.032;2023-10-19T04:38:26;33.80;;;27.43;;
1507;SDS011;745;48.586;10.032;2023-10-19T04:40:27;34.53;;;27.80;;
1507;SDS011;745;48.586;10.032;2023-10-19T04:42:27;31.67;;;26.87;;
1507;SDS011;745;48.586;10.032;2023-10-19T04:44:28;33.90;;;27.30;;
1507;SDS011;745;48.586;10.032;2023-10-19T04:46:30;39.53;;;31.77;;
1507;SDS011;745;48.586;10.032;2023-10-19T04:48:31;40.47;;;32.30;;
1507;SDS011;745;48.586;10.032;2023-10-19T04:50:31;45.10;;;32.13;;
1507;SDS011;745;48.586;10.032;2023-10-19T04:52:31;57.80;;;40.97;;
1507;SDS011;745;48.586;10.032;2023-10-19T04:54:32;60.80;;;41.30;;
1507;SDS011;745;48.586;10.032;2023-10-19T04:56:32;55.47;;;36.90;;
1507;SDS011;745;48.586;10.032;2023-10-19T04:58:33;49.13;;;35.30;;
1507;SDS011;745;48.586;10.032;2023-10-19T05:00:33;44.73;;;32.07;;
1507;SDS011;745;48.586;10.032;2023-10-19T05:02:34;40.43;;;29.10;;
1507;SDS011;745;48.586;10.032;2023-10-19T05:04:34;37.67;;;28.80;;
1507;SDS011;745;48.586;10.032;2023-10-19T05:06:35;38.42;;;29.83;;
1507;SDS011;745;48.586;10.032;2023-10-19T05:08:36;34.00;;;27.00;;
1507;SDS011;745;48.586;10.032;2023-10-19T05:10:37;33.80;;;26.97;;
1507;SDS011;745;48.586;10.032;2023-10-19T05:12:37;35.07;;;28.33;;
1507;SDS011;745;48.586;10.032;2023-10-19T05:14:40;33.87;;;27.97;;
1507;SDS011;745;48.586;10.032;2023-10-19T05:16:44;31.90;;;26.33;;
1507;SDS011;745;48.586;10.032;2023-10-19T05:18:44;37.00;;;29.07;;
1507;SDS011;745;48.586;10.032;2023-10-19T05:20:44;36.77;;;29.63;;
1507;SDS011;745;48.586;10.032;2023-10-19T05:22:46;37.58;;;28.88;;
1507;SDS011;745;48.586;10.032;2023-10-19T05:24:46;38.40;;;29.23;;
1507;SDS011;745;48.586;10.032;2023-10-19T05:26:48;38.83;;;29.60;;
1507;SDS011;745;48.586;10.032;2023-10-19T05:28:49;38.17;;;29.35;;
1507;SDS011;745;48.586;10.032;2023-10-19T05:30:49;39.40;;;28.93;;
1507;SDS011;745;48.586;10.032;2023-10-19T05:32:50;37.60;;;28.23;;
1507;SDS011;745;48.586;10.032;2023-10-19T05:34:51;38.20;;;29.40;;
1507;SDS011;745;48.586;10.032;2023-10-19T05:36:51;41.20;;;31.00;;
1507;SDS011;745;48.586;10.032;2023-10-19T05:38:51;37.87;;;29.07;;
1507;SDS011;745;48.586;10.032;2023-10-19T05:40:52;39.70;;;33.40;;
1507;SDS011;745;48.586;10.032;2023-10-19T05:42:52;44.40;;;33.47;;
1507;SDS011;745;48.586;10.032;2023-10-19T05:44:53;46.73;;;31.10;;
1507;SDS011;745;48.586;10.032;2023-10-19T05:46:53;43.10;;;31.97;;
1507;SDS011;745;48.586;10.032;2023-10-19T05:48:56;42.40;;;31.52;;
1507;SDS011;745;48.586;10.032;2023-10-19T05:50:56;39.90;;;31.42;;
1507;SDS011;745;48.586;10.032;2023-10-19T05:52:56;77.00;;;53.60;;
1507;SDS011;745;48.586;10.032;2023-10-19T05:54:57;59.40;;;44.57;;
1507;SDS011;745;48.586;10.032;2023-10-19T05:56:57;44.37;;;33.60;;
1507;SDS011;745;48.586;10.032;2023-10-19T05:58:58;42.30;;;33.13;;
1507;SDS011;745;48.586;10.032;2023-10-19T06:00:59;42.73;;;32.00;;
1507;SDS011;745;48.586;10.032;2023-10-19T06:02:59;39.07;;;29.27;;
1507;SDS011;745;48.586;10.032;2023-10-19T06:04:59;37.53;;;29.30;;
1507;SDS011;745;48.586;10.032;2023-10-19T06:07:00;38.73;;;29.40;;
1507;SDS011;745;48.586;10.032;2023-10-19T06:09:00;43.00;;;30.33;;
1507;SDS011;745;48.586;10.032;2023-10-19T06:11:02;46.92;;;31.90;;
1507;SDS011;745;48.586;10.032;2023-10-19T06:13:02;40.00;;;28.80;;
1507;SDS011;745;48.586;10.032;2023-10-19T06:15:03;45.17;;;31.83;;
1507;SDS011;745;48.586;10.032;2023-10-19T06:17:04;43.43;;;30.90;;
1507;SDS011;745;48.586;10.032;2023-10-19T06:19:04;36.90;;;28.60;;
1507;SDS011;745;48.586;10.032;2023-10-19T06:21:05;39.70;;;28.97;;
1507;SDS011;745;48.586;10.032;2023-10-19T06:23:05;35.67;;;27.73;;
1507;SDS011;745;48.586;10.032;2023-10-19T06:25:06;38.30;;;27.67;;
1507;SDS011;745;48.586;10.032;2023-10-19T06:27:07;33.70;;;26.80;;
1507;SDS011;745;48.586;10.032;2023-10-19T06:29:07;37.97;;;28.77;;
1507;SDS011;745;48.586;10.032;2023-10-19T06:31:07;43.63;;;32.30;;
1507;SDS011;745;48.586;10.032;2023-10-19T06:33:08;43.23;;;31.80;;
1507;SDS011;745;48.586;10.032;2023-10-19T06:35:08;37.47;;;29.77;;
1507;SDS011;745;48.586;10.032;2023-10-19T06:37:11;37.85;;;27.60;;
1507;SDS011;745;48.586;10.032;2023-10-19T06:39:11;36.90;;;28.10;;
1507;SDS011;745;48.586;10.032;2023-10-19T06:41:13;34.25;;;27.50;;
1507;SDS011;745;48.586;10.032;2023-10-19T06:43:14;40.20;;;29.17;;
1507;SDS011;745;48.586;10.032;2023-10-19T06:45:15;35.17;;;28.27;;
1507;SDS011;745;48.586;10.032;2023-10-19T06:47:16;39.85;;;28.58;;
1507;SDS011;745;48.586;10.032;2023-10-19T06:49:17;34.73;;;27.17;;
1507;SDS011;745;48.586;10.032;2023-10-19T06:51:17;35.17;;;28.77;;
1507;SDS011;745;48.586;10.032;2023-10-19T06:53:18;35.77;;;27.07;;
1507;SDS011;745;48.586;10.032;2023-10-19T06:55:18;32.30;;;26.10;;
1507;SDS011;745;48.586;10.032;2023-10-19T06:57:20;35.28;;;26.33;;
1507;SDS011;745;48.586;10.032;2023-10-19T06:59:20;31.90;;;25.33;;
1507;SDS011;745;48.586;10.032;2023-10-19T07:01:20;31.07;;;25.57;;
1507;SDS011;745;48.586;10.032;2023-10-19T07:03:25;31.95;;;25.17;;
1507;SDS011;745;48.586;10.032;2023-10-19T07:05:28;31.35;;;25.40;;
1507;SDS011;745;48.586;10.032;2023-10-19T07:07:32;32.40;;;25.15;;
1507;SDS011;745;48.586;10.032;2023-10-19T07:09:33;31.23;;;25.52;;
1507;SDS011;745;48.586;10.032;2023-10-19T07:11:34;29.55;;;24.10;;
1507;SDS011;745;48.586;10.032;2023-10-19T07:13:35;32.17;;;24.35;;
1507;SDS011;745;48.586;10.032;2023-10-19T07:15:36;31.80;;;25.07;;
1507;SDS011;745;48.586;10.032;2023-10-19T07:17:36;31.10;;;24.90;;
1507;SDS011;745;48.586;10.032;2023-10-19T07:19:41;31.90;;;27.10;;
1507;SDS011;745;48.586;10.032;2023-10-19T07:21:42;31.85;;;25.25;;
1507;SDS011;745;48.586;10.032;2023-10-19T07:23:43;29.27;;;24.55;;
1507;SDS011;745;48.586;10.032;2023-10-19T07:25:46;32.60;;;25.58;;
1507;SDS011;745;48.586;10.032;2023-10-19T07:27:54;30.42;;;24.73;;
1507;SDS011;745;48.586;10.032;2023-10-19T07:29:55;32.40;;;24.70;;
1507;SDS011;745;48.586;10.032;2023-10-19T07:31:56;27.50;;;24.05;;
1507;SDS011;745;48.586;10.032;2023-10-19T07:33:58;27.95;;;23.98;;
1507;SDS011;745;48.586;10.032;2023-10-19T07:35:59;32.43;;;24.57;;
1507;SDS011;745;48.586;10.032;2023-10-19T07:38:06;29.45;;;24.60;;
1507;SDS011;745;48.586;10.032;2023-10-19T07:40:07;33.60;;;26.17;;
1507;SDS011;745;48.586;10.032;2023-10-19T07:42:14;29.75;;;25.10;;
1507;SDS011;745;48.586;10.032;2023-10-19T07:44:14;29.50;;;25.17;;
1507;SDS011;745;48.586;10.032;2023-10-19T07:46:15;28.30;;;22.63;;
1507;SDS011;745;48.586;10.032;2023-10-19T07:48:15;31.00;;;24.30;;
1507;SDS011;745;48.586;10.032;2023-10-19T07:50:17;25.13;;;20.25;;
1507;SDS011;745;48.586;10.032;2023-10-19T07:52:17;28.57;;;21.37;;
1507;SDS011;745;48.586;10.032;2023-10-19T07:54:17;30.13;;;25.33;;
1507;SDS011;745;48.586;10.032;2023-10-19T07:56:18;35.20;;;28.67;;
1507;SDS011;745;48.586;10.032;2023-10-19T07:58:19;41.20;;;30.33;;
1507;SDS011;745;48.586;10.032;2023-10-19T08:00:20;35.47;;;28.97;;
1507;SDS011;745;48.586;10.032;2023-10-19T08:02:20;35.85;;;28.10;;
1507;SDS011;745;48.586;10.032;2023-10-19T08:04:21;34.27;;;27.13;;
1507;SDS011;745;48.586;10.032;2023-10-19T08:06:21;36.60;;;30.60;;
1507;SDS011;745;48.586;10.032;2023-10-19T08:08:21;33.70;;;29.10;;
1507;SDS011;745;48.586;10.032;2023-10-19T08:10:24;35.53;;;29.13;;
1507;SDS011;745;48.586;10.032;2023-10-19T08:12:26;31.95;;;28.58;;
1507;SDS011;745;48.586;10.032;2023-10-19T08:14:26;44.07;;;36.20;;
1507;SDS011;745;48.586;10.032;2023-10-19T08:16:27;39.60;;;34.10;;
1507;SDS011;745;48.586;10.032;2023-10-19T08:18:27;35.27;;;29.90;;
1507;SDS011;745;48.586;10.032;2023-10-19T08:20:30;33.78;;;27.80;;
1507;SDS011;745;48.586;10.032;2023-10-19T08:22:30;30.03;;;24.47;;
1507;SDS011;745;48.586;10.032;2023-10-19T08:24:31;29.30;;;24.13;;
1507;SDS011;745;48.586;10.032;2023-10-19T08:26:35;30.02;;;24.52;;
1507;SDS011;745;48.586;10.032;2023-10-19T08:28:36;31.48;;;25.13;;
1507;SDS011;745;48.586;10.032;2023-10-19T08:30:37;29.77;;;23.90;;
1507;SDS011;745;48.586;10.032;2023-10-19T08:32:37;32.07;;;25.17;;
1507;SDS011;745;48.586;10.032;2023-10-19T08:34:37;32.37;;;25.33;;
1507;SDS011;745;48.586;10.032;2023-10-19T08:36:39;28.45;;;23.92;;
1507;SDS011;745;48.586;10.032;2023-10-19T08:38:40;47.20;;;38.53;;
1507;SDS011;745;48.586;10.032;2023-10-19T08:40:40;37.20;;;31.57;;
1507;SDS011;745;48.586;10.032;2023-10-19T08:42:41;35.87;;;27.50;;
1507;SDS011;745;48.586;10.032;2023-10-19T08:44:42;29.67;;;24.33;;
1507;SDS011;745;48.586;10.032;2023-10-19T08:46:43;29.97;;;24.43;;
1507;SDS011;745;48.586;10.032;2023-10-19T08:48:45;29.10;;;24.10;;
1507;SDS011;745;48.586;10.032;2023-10-19T08:50:47;28.67;;;23.08;;
1507;SDS011;745;48.586;10.032;2023-10-19T08:52:48;28.58;;;23.98;;
1507;SDS011;745;48.586;10.032;2023-10-19T08:54:52;30.83;;;26.65;;
1507;SDS011;745;48.586;10.032;2023-10-19T08:56:54;28.55;;;24.50;;
1507;SDS011;745;48.586;10.032;2023-10-19T08:58:55;28.80;;;22.75;;
1507;SDS011;745;48.586;10.032;2023-10-19T09:00:56;31.10;;;25.80;;
1507;SDS011;745;48.586;10.032;2023-10-19T09:02:56;30.23;;;24.90;;
1507;SDS011;745;48.586;10.032;2023-10-19T09:04:57;29.97;;;23.00;;
1507;SDS011;745;48.586;10.032;2023-10-19T09:06:59;30.27;;;23.23;;
1507;SDS011;745;48.586;10.032;2023-10-19T09:09:00;28.97;;;24.67;;
1507;SDS011;745;48.586;10.032;2023-10-19T09:11:02;31.37;;;23.47;;
1507;SDS011;745;48.586;10.032;2023-10-19T09:13:07;31.70;;;22.75;;
1507;SDS011;745;48.586;10.032;2023-10-19T09:15:20;27.45;;;23.77;;
1507;SDS011;745;48.586;10.032;2023-10-19T09:17:29;30.50;;;27.20;;
1507;SDS011;745;48.586;10.032;2023-10-19T09:19:36;32.10;;;26.90;;
1507;SDS011;745;48.586;10.032;2023-10-19T09:21:41;36.58;;;27.90;;
1507;SDS011;745;48.586;10.032;2023-10-19T09:23:42;33.50;;;27.50;;
1507;SDS011;745;48.586;10.032;2023-10-19T09:25:42;31.40;;;27.17;;
1507;SDS011;745;48.586;10.032;2023-10-19T09:27:42;33.90;;;28.40;;
1507;SDS011;745;48.586;10.032;2023-10-19T09:29:44;38.87;;;30.53;;
1507;SDS011;745;48.586;10.032;2023-10-19T09:31:45;45.45;;;33.60;;
1507;SDS011;745;48.586;10.032;2023-10-19T09:33:46;34.20;;;26.92;;
1507;SDS011;745;48.586;10.032;2023-10-19T09:35:49;30.60;;;27.10;;
1507;SDS011;745;48.586;10.032;2023-10-19T09:37:53;33.88;;;28.73;;
1507;SDS011;745;48.586;10.032;2023-10-19T09:39:54;33.42;;;28.02;;
1507;SDS011;745;48.586;10.032;2023-10-19T09:41:55;31.10;;;26.73;;
1507;SDS011;745;48.586;10.032;2023-10-19T09:44:05;34.05;;;27.55;;
1507;SDS011;745;48.586;10.032;2023-10-19T09:46:11;35.53;;;28.10;;
1507;SDS011;745;48.586;10.032;2023-10-19T09:48:12;33.22;;;25.65;;
1507;SDS011;745;48.586;10.032;2023-10-19T09:50:17;33.80;;;26.85;;
1507;SDS011;745;48.586;10.032;2023-10-19T09:52:17;33.07;;;27.50;;
1507;SDS011;745;48.586;10.032;2023-10-19T09:54:20;33.90;;;27.13;;
1507;SDS011;745;48.586;10.032;2023-10-19T09:56:28;32.97;;;27.48;;
1507;SDS011;745;48.586;10.032;2023-10-19T09:58:36;39.72;;;29.83;;
1507;SDS011;745;48.586;10.032;2023-10-19T10:00:46;36.00;;;29.58;;
1507;SDS011;745;48.586;10.032;2023-10-19T10:02:50;36.97;;;29.30;;
1507;SDS011;745;48.586;10.032;2023-10-19T10:04:51;31.30;;;26.00;;
1507;SDS011;745;48.586;10.032;2023-10-19T10:08:53;32.88;;;26.08;;
1507;SDS011;745;48.586;10.032;2023-10-19T10:10:54;31.30;;;24.83;;
1507;SDS011;745;48.586;10.032;2023-10-19T10:12:55;31.77;;;26.45;;
1507;SDS011;745;48.586;10.032;2023-10-19T10:15:37;28.50;;;23.77;;
1507;SDS011;745;48.586;10.032;2023-10-19T10:17:38;37.50;;;29.63;;
1507;SDS011;745;48.586;10.032;2023-10-19T10:19:39;36.37;;;28.23;;
1507;SDS011;745;48.586;10.032;2023-10-19T10:21:40;32.85;;;27.38;;
1507;SDS011;745;48.586;10.032;2023-10-19T10:24:05;32.38;;;26.30;;
1507;SDS011;745;48.586;10.032;2023-10-19T10:26:05;36.40;;;28.50;;
1507;SDS011;745;48.586;10.032;2023-10-19T10:28:08;33.58;;;27.08;;
1507;SDS011;745;48.586;10.032;2023-10-19T10:30:14;33.90;;;29.08;;
1507;SDS011;745;48.586;10.032;2023-10-19T10:32:37;36.95;;;30.23;;
1507;SDS011;745;48.586;10.032;2023-10-19T10:34:43;33.95;;;28.75;;
1507;SDS011;745;48.586;10.032;2023-10-19T10:37:02;36.17;;;29.23;;
1507;SDS011;745;48.586;10.032;2023-10-19T10:39:03;37.88;;;30.42;;
1507;SDS011;745;48.586;10.032;2023-10-19T10:41:21;40.75;;;30.10;;
1507;SDS011;745;48.586;10.032;2023-10-19T10:43:22;35.58;;;30.10;;
1507;SDS011;745;48.586;10.032;2023-10-19T10:45:23;34.93;;;30.33;;
1507;SDS011;745;48.586;10.032;2023-10-19T10:47:23;35.03;;;28.40;;
1507;SDS011;745;48.586;10.032;2023-10-19T10:49:29;34.13;;;28.02;;
1507;SDS011;745;48.586;10.032;2023-10-19T10:51:30;34.30;;;28.73;;
1507;SDS011;745;48.586;10.032;2023-10-19T10:53:30;34.57;;;27.97;;
1507;SDS011;745;48.586;10.032;2023-10-19T10:55:32;34.53;;;29.65;;
1507;SDS011;745;48.586;10.032;2023-10-19T10:57:32;34.83;;;28.77;;
1507;SDS011;745;48.586;10.032;2023-10-19T10:59:33;31.67;;;27.60;;
1507;SDS011;745;48.586;10.032;2023-10-19T11:01:34;32.07;;;25.73;;
1507;SDS011;745;48.586;10.032;2023-10-19T11:03:35;32.03;;;27.42;;
1507;SDS011;745;48.586;10.032;2023-10-19T11:05:36;30.75;;;27.35;;
1507;SDS011;745;48.586;10.032;2023-10-19T11:07:40;32.50;;;27.40;;
1507;SDS011;745;48.586;10.032;2023-10-19T11:09:45;29.25;;;25.48;;
1507;SDS011;745;48.586;10.032;2023-10-19T11:11:46;30.20;;;25.13;;
1507;SDS011;745;48.586;10.032;2023-10-19T11:13:49;31.13;;;25.15;;
1507;SDS011;745;48.586;10.032;2023-10-19T11:15:50;27.07;;;23.43;;
1507;SDS011;745;48.586;10.032;2023-10-19T11:17:53;27.95;;;24.08;;
1507;SDS011;745;48.586;10.032;2023-10-19T11:19:54;26.83;;;23.90;;
1507;SDS011;745;48.586;10.032;2023-10-19T11:21:56;27.20;;;23.63;;
1507;SDS011;745;48.586;10.032;2023-10-19T11:23:57;26.43;;;23.43;;
1507;SDS011;745;48.586;10.032;2023-10-19T11:25:57;28.53;;;22.70;;
1507;SDS011;745;48.586;10.032;2023-10-19T11:27:59;28.17;;;23.63;;
1507;SDS011;745;48.586;10.032;2023-10-19T11:30:00;25.95;;;23.23;;
1507;SDS011;745;48.586;10.032;2023-10-19T11:32:05;26.90;;;23.35;;
1507;SDS011;745;48.586;10.032;2023-10-19T11:34:06;25.95;;;23.17;;
1507;SDS011;745;48.586;10.032;2023-10-19T11:36:07;26.20;;;23.35;;
1507;SDS011;745;48.586;10.032;2023-10-19T11:38:07;27.10;;;23.37;;
1507;SDS011;745;48.586;10.032;2023-10-19T11:40:08;24.30;;;21.70;;
1507;SDS011;745;48.586;10.032;2023-10-19T11:42:08;25.40;;;22.70;;
1507;SDS011;745;48.586;10.032;2023-10-19T11:44:10;28.17;;;23.85;;
1507;SDS011;745;48.586;10.032;2023-10-19T11:46:10;26.70;;;22.90;;
1507;SDS011;745;48.586;10.032;2023-10-19T11:48:14;27.92;;;23.75;;
1507;SDS011;745;48.586;10.032;2023-10-19T11:50:16;29.67;;;21.98;;
1507;SDS011;745;48.586;10.032;2023-10-19T11:52:18;25.83;;;22.52;;
1507;SDS011;745;48.586;10.032;2023-10-19T11:54:19;25.55;;;22.73;;
1507;SDS011;745;48.586;10.032;2023-10-19T11:56:19;25.90;;;22.17;;
1507;SDS011;745;48.586;10.032;2023-10-19T11:58:21;26.58;;;21.70;;
1507;SDS011;745;48.586;10.032;2023-10-19T12:00:22;24.67;;;21.50;;
1507;SDS011;745;48.586;10.032;2023-10-19T12:02:24;25.23;;;21.45;;
1507;SDS011;745;48.586;10.032;2023-10-19T12:04:26;27.58;;;23.10;;
1507;SDS011;745;48.586;10.032;2023-10-19T12:06:27;28.73;;;25.10;;
1507;SDS011;745;48.586;10.032;2023-10-19T12:08:27;29.47;;;24.63;;
1507;SDS011;745;48.586;10.032;2023-10-19T12:10:27;35.57;;;29.00;;
1507;SDS011;745;48.586;10.032;2023-10-19T12:12:36;35.15;;;28.65;;
1507;SDS011;745;48.586;10.032;2023-10-19T12:14:37;31.40;;;28.00;;
1507;SDS011;745;48.586;10.032;2023-10-19T12:16:37;31.30;;;25.57;;
1507;SDS011;745;48.586;10.032;2023-10-19T12:18:39;31.42;;;26.35;;
1507;SDS011;745;48.586;10.032;2023-10-19T12:20:39;32.00;;;26.63;;
1507;SDS011;745;48.586;10.032;2023-10-19T12:22:45;29.63;;;25.80;;